sensor_id;sensor_type;location;lat;lon;timestamp;P1;durP1;ratioP1;P2;durP2;ratioP2
21581;SDS011;10952;50.836;4.348;2023-03-02T00:02:12;18.70;;;11.27;;
21581;SDS011;10952;50.836;4.348;2023-03-02T00:04:51;22.80;;;12.20;;
21581;SDS011;10952;50.836;4.348;2023-03-02T00:07:23;19.77;;;11.60;;
21581;SDS011;10952;50.836;4.348;2023-03-02T00:09:56;20.77;;;11.60;;
21581;SDS011;10952;50.836;4.348;2023-03-02T00:14:52;21.07;;;11.60;;
21581;SDS011;10952;50.836;4.348;2023-03-02T00:22:39;20.67;;;11.67;;
21581;SDS011;10952;50.836;4.348;2023-03-02T00:27:38;23.17;;;11.97;;
21581;SDS011;10952;50.836;4.348;2023-03-02T00:30:11;19.50;;;11.53;;
21581;SDS011;10952;50.836;4.348;2023-03-02T00:32:38;21.10;;;11.40;;
21581;SDS011;10952;50.836;4.348;2023-03-02T00:35:04;20.10;;;10.57;;
21581;SDS011;10952;50.836;4.348;2023-03-02T00:37:34;21.17;;;11.60;;
21581;SDS011;10952;50.836;4.348;2023-03-02T00:42:43;19.93;;;11.10;;
21581;SDS011;10952;50.836;4.348;2023-03-02T00:45:19;17.13;;;9.97;;
21581;SDS011;10952;50.836;4.348;2023-03-02T00:47:50;19.03;;;10.87;;
21581;SDS011;10952;50.836;4.348;2023-03-02T00:50:19;20.37;;;10.17;;
21581;SDS011;10952;50.836;4.348;2023-03-02T00:52:51;23.27;;;11.07;;
21581;SDS011;10952;50.836;4.348;2023-03-02T00:57:47;20.33;;;10.77;;
21581;SDS011;10952;50.836;4.348;2023-03-02T01:02:48;23.60;;;11.00;;
21581;SDS011;10952;50.836;4.348;2023-03-02T01:05:15;19.50;;;10.60;;
21581;SDS011;10952;50.836;4.348;2023-03-02T01:07:44;21.17;;;11.07;;
21581;SDS011;10952;50.836;4.348;2023-03-02T01:10:16;18.00;;;9.97;;
21581;SDS011;10952;50.836;4.348;2023-03-02T01:12:45;19.83;;;9.93;;
21581;SDS011;10952;50.836;4.348;2023-03-02T01:15:13;18.10;;;9.00;;
21581;SDS011;10952;50.836;4.348;2023-03-02T01:17:42;22.20;;;11.30;;
21581;SDS011;10952;50.836;4.348;2023-03-02T01:20:08;17.47;;;9.43;;
21581;SDS011;10952;50.836;4.348;2023-03-02T01:22:35;15.80;;;9.67;;
21581;SDS011;10952;50.836;4.348;2023-03-02T01:25:03;20.10;;;10.70;;
21581;SDS011;10952;50.836;4.348;2023-03-02T01:27:32;18.57;;;9.27;;
21581;SDS011;10952;50.836;4.348;2023-03-02T01:32:53;17.80;;;10.00;;
21581;SDS011;10952;50.836;4.348;2023-03-02T01:35:22;16.87;;;8.77;;
21581;SDS011;10952;50.836;4.348;2023-03-02T01:37:49;20.57;;;10.50;;
21581;SDS011;10952;50.836;4.348;2023-03-02T01:40:16;22.83;;;9.83;;
21581;SDS011;10952;50.836;4.348;2023-03-02T01:42:50;17.97;;;9.93;;
21581;SDS011;10952;50.836;4.348;2023-03-02T01:50:41;17.87;;;10.17;;
21581;SDS011;10952;50.836;4.348;2023-03-02T01:53:09;19.10;;;9.33;;
21581;SDS011;10952;50.836;4.348;2023-03-02T01:55:35;19.27;;;10.50;;
21581;SDS011;10952;50.836;4.348;2023-03-02T02:00:35;18.43;;;9.10;;
21581;SDS011;10952;50.836;4.348;2023-03-02T02:03:08;16.17;;;9.37;;
21581;SDS011;10952;50.836;4.348;2023-03-02T02:06:02;18.77;;;9.27;;
21581;SDS011;10952;50.836;4.348;2023-03-02T02:08:37;14.63;;;8.63;;
21581;SDS011;10952;50.836;4.348;2023-03-02T02:11:05;17.17;;;9.13;;
21581;SDS011;10952;50.836;4.348;2023-03-02T02:13:31;14.77;;;9.60;;
21581;SDS011;10952;50.836;4.348;2023-03-02T02:16:00;21.53;;;9.23;;
21581;SDS011;10952;50.836;4.348;2023-03-02T02:18:29;19.23;;;9.70;;
21581;SDS011;10952;50.836;4.348;2023-03-02T02:20:58;17.67;;;9.83;;
21581;SDS011;10952;50.836;4.348;2023-03-02T02:23:28;17.77;;;8.90;;
21581;SDS011;10952;50.836;4.348;2023-03-02T02:26:47;16.90;;;9.00;;
21581;SDS011;10952;50.836;4.348;2023-03-02T02:29:05;17.47;;;9.57;;
21581;SDS011;10952;50.836;4.348;2023-03-02T02:35:08;18.37;;;8.87;;
21581;SDS011;10952;50.836;4.348;2023-03-02T02:37:45;18.43;;;9.70;;
21581;SDS011;10952;50.836;4.348;2023-03-02T02:40:16;16.77;;;9.10;;
21581;SDS011;10952;50.836;4.348;2023-03-02T02:42:51;18.50;;;9.30;;
21581;SDS011;10952;50.836;4.348;2023-03-02T02:45:21;16.33;;;9.30;;
21581;SDS011;10952;50.836;4.348;2023-03-02T02:47:50;17.03;;;8.67;;
21581;SDS011;10952;50.836;4.348;2023-03-02T02:50:24;18.27;;;9.87;;
21581;SDS011;10952;50.836;4.348;2023-03-02T02:53:01;20.47;;;9.73;;
21581;SDS011;10952;50.836;4.348;2023-03-02T02:55:30;16.87;;;9.27;;
21581;SDS011;10952;50.836;4.348;2023-03-02T02:58:00;18.20;;;8.50;;
21581;SDS011;10952;50.836;4.348;2023-03-02T03:03:14;16.63;;;8.73;;
21581;SDS011;10952;50.836;4.348;2023-03-02T03:05:55;16.93;;;9.53;;
21581;SDS011;10952;50.836;4.348;2023-03-02T03:11:26;15.70;;;9.33;;
21581;SDS011;10952;50.836;4.348;2023-03-02T03:13:59;17.37;;;9.33;;
21581;SDS011;10952;50.836;4.348;2023-03-02T03:16:33;13.70;;;8.97;;
21581;SDS011;10952;50.836;4.348;2023-03-02T03:19:44;17.40;;;8.63;;
21581;SDS011;10952;50.836;4.348;2023-03-02T03:21:56;18.03;;;9.10;;
21581;SDS011;10952;50.836;4.348;2023-03-02T03:24:24;14.97;;;8.27;;
21581;SDS011;10952;50.836;4.348;2023-03-02T03:26:53;18.97;;;10.37;;
21581;SDS011;10952;50.836;4.348;2023-03-02T03:29:23;14.90;;;8.37;;
21581;SDS011;10952;50.836;4.348;2023-03-02T03:31:53;15.73;;;8.43;;
21581;SDS011;10952;50.836;4.348;2023-03-02T03:34:20;17.10;;;8.70;;
21581;SDS011;10952;50.836;4.348;2023-03-02T03:36:47;19.13;;;9.23;;
21581;SDS011;10952;50.836;4.348;2023-03-02T03:39:14;14.60;;;8.37;;
21581;SDS011;10952;50.836;4.348;2023-03-02T03:41:41;16.70;;;9.40;;
21581;SDS011;10952;50.836;4.348;2023-03-02T03:44:06;21.50;;;9.57;;
21581;SDS011;10952;50.836;4.348;2023-03-02T03:46:36;15.63;;;8.83;;
21581;SDS011;10952;50.836;4.348;2023-03-02T03:49:04;18.07;;;9.43;;
21581;SDS011;10952;50.836;4.348;2023-03-02T03:51:34;17.70;;;9.10;;
21581;SDS011;10952;50.836;4.348;2023-03-02T03:54:06;15.67;;;9.10;;
21581;SDS011;10952;50.836;4.348;2023-03-02T03:59:05;14.70;;;9.13;;
21581;SDS011;10952;50.836;4.348;2023-03-02T04:01:49;17.27;;;8.47;;
21581;SDS011;10952;50.836;4.348;2023-03-02T04:04:26;14.80;;;8.37;;
21581;SDS011;10952;50.836;4.348;2023-03-02T04:06:58;22.77;;;9.27;;
21581;SDS011;10952;50.836;4.348;2023-03-02T04:09:28;17.33;;;9.73;;
21581;SDS011;10952;50.836;4.348;2023-03-02T04:12:02;16.37;;;8.90;;
21581;SDS011;10952;50.836;4.348;2023-03-02T04:14:30;14.90;;;8.30;;
21581;SDS011;10952;50.836;4.348;2023-03-02T04:16:59;15.43;;;9.30;;
21581;SDS011;10952;50.836;4.348;2023-03-02T04:19:30;14.90;;;7.90;;
21581;SDS011;10952;50.836;4.348;2023-03-02T04:21:59;14.80;;;8.83;;
21581;SDS011;10952;50.836;4.348;2023-03-02T04:26:57;14.13;;;8.07;;
21581;SDS011;10952;50.836;4.348;2023-03-02T04:31:55;15.50;;;8.53;;
21581;SDS011;10952;50.836;4.348;2023-03-02T04:36:53;20.60;;;8.67;;
21581;SDS011;10952;50.836;4.348;2023-03-02T04:39:19;18.57;;;9.00;;
21581;SDS011;10952;50.836;4.348;2023-03-02T04:41:45;14.87;;;8.50;;
21581;SDS011;10952;50.836;4.348;2023-03-02T04:44:12;18.07;;;8.87;;
21581;SDS011;10952;50.836;4.348;2023-03-02T04:46:42;15.87;;;9.03;;
21581;SDS011;10952;50.836;4.348;2023-03-02T04:49:12;17.50;;;8.77;;
21581;SDS011;10952;50.836;4.348;2023-03-02T04:51:46;18.33;;;8.50;;
21581;SDS011;10952;50.836;4.348;2023-03-02T04:54:18;17.47;;;8.90;;
21581;SDS011;10952;50.836;4.348;2023-03-02T04:56:53;14.53;;;7.87;;
21581;SDS011;10952;50.836;4.348;2023-03-02T05:01:51;15.43;;;8.80;;
21581;SDS011;10952;50.836;4.348;2023-03-02T05:04:18;16.17;;;8.40;;
21581;SDS011;10952;50.836;4.348;2023-03-02T05:06:47;16.20;;;8.60;;
21581;SDS011;10952;50.836;4.348;2023-03-02T05:09:13;17.43;;;8.70;;
21581;SDS011;10952;50.836;4.348;2023-03-02T05:11:38;17.73;;;8.37;;
21581;SDS011;10952;50.836;4.348;2023-03-02T05:14:05;17.03;;;9.10;;
21581;SDS011;10952;50.836;4.348;2023-03-02T05:16:39;18.13;;;10.13;;
21581;SDS011;10952;50.836;4.348;2023-03-02T05:19:08;13.67;;;8.00;;
21581;SDS011;10952;50.836;4.348;2023-03-02T05:21:38;15.07;;;9.43;;
21581;SDS011;10952;50.836;4.348;2023-03-02T05:24:06;14.80;;;8.73;;
21581;SDS011;10952;50.836;4.348;2023-03-02T05:26:34;18.50;;;9.10;;
21581;SDS011;10952;50.836;4.348;2023-03-02T05:29:00;14.97;;;7.60;;
21581;SDS011;10952;50.836;4.348;2023-03-02T05:31:33;18.53;;;8.97;;
21581;SDS011;10952;50.836;4.348;2023-03-02T05:34:02;17.97;;;8.93;;
21581;SDS011;10952;50.836;4.348;2023-03-02T05:36:33;16.90;;;8.57;;
21581;SDS011;10952;50.836;4.348;2023-03-02T05:39:00;15.43;;;8.63;;
21581;SDS011;10952;50.836;4.348;2023-03-02T05:41:28;22.73;;;9.07;;
21581;SDS011;10952;50.836;4.348;2023-03-02T05:43:57;18.33;;;8.63;;
21581;SDS011;10952;50.836;4.348;2023-03-02T05:48:55;17.77;;;8.47;;
21581;SDS011;10952;50.836;4.348;2023-03-02T05:51:27;16.93;;;8.60;;
21581;SDS011;10952;50.836;4.348;2023-03-02T05:53:55;15.37;;;8.43;;
21581;SDS011;10952;50.836;4.348;2023-03-02T05:58:52;18.47;;;8.50;;
21581;SDS011;10952;50.836;4.348;2023-03-02T06:03:48;14.67;;;8.30;;
21581;SDS011;10952;50.836;4.348;2023-03-02T06:06:14;18.90;;;8.67;;
21581;SDS011;10952;50.836;4.348;2023-03-02T06:08:41;32.30;;;14.70;;
21581;SDS011;10952;50.836;4.348;2023-03-02T06:11:08;15.50;;;8.67;;
21581;SDS011;10952;50.836;4.348;2023-03-02T06:13:35;19.23;;;8.53;;
21581;SDS011;10952;50.836;4.348;2023-03-02T06:16:02;19.53;;;8.43;;
21581;SDS011;10952;50.836;4.348;2023-03-02T06:18:29;20.03;;;8.93;;
21581;SDS011;10952;50.836;4.348;2023-03-02T06:20:55;17.57;;;8.77;;
21581;SDS011;10952;50.836;4.348;2023-03-02T06:23:25;13.60;;;7.70;;
21581;SDS011;10952;50.836;4.348;2023-03-02T06:25:51;14.87;;;8.40;;
21581;SDS011;10952;50.836;4.348;2023-03-02T06:28:20;18.57;;;8.00;;
21581;SDS011;10952;50.836;4.348;2023-03-02T06:30:47;15.50;;;8.93;;
21581;SDS011;10952;50.836;4.348;2023-03-02T06:33:19;19.77;;;9.03;;
21581;SDS011;10952;50.836;4.348;2023-03-02T06:35:45;15.13;;;7.67;;
21581;SDS011;10952;50.836;4.348;2023-03-02T06:38:13;25.00;;;7.80;;
21581;SDS011;10952;50.836;4.348;2023-03-02T06:40:40;16.40;;;7.73;;
21581;SDS011;10952;50.836;4.348;2023-03-02T06:43:07;26.30;;;10.20;;
21581;SDS011;10952;50.836;4.348;2023-03-02T06:48:16;15.97;;;8.33;;
21581;SDS011;10952;50.836;4.348;2023-03-02T06:50:44;17.17;;;7.57;;
21581;SDS011;10952;50.836;4.348;2023-03-02T06:53:11;15.77;;;8.53;;
21581;SDS011;10952;50.836;4.348;2023-03-02T06:55:40;15.73;;;8.20;;
21581;SDS011;10952;50.836;4.348;2023-03-02T07:00:40;17.30;;;8.47;;
21581;SDS011;10952;50.836;4.348;2023-03-02T07:03:05;20.90;;;9.33;;
21581;SDS011;10952;50.836;4.348;2023-03-02T07:05:32;16.87;;;8.80;;
21581;SDS011;10952;50.836;4.348;2023-03-02T07:07:59;18.37;;;8.27;;
21581;SDS011;10952;50.836;4.348;2023-03-02T07:10:25;17.73;;;8.20;;
21581;SDS011;10952;50.836;4.348;2023-03-02T07:12:51;16.43;;;8.03;;
21581;SDS011;10952;50.836;4.348;2023-03-02T07:15:19;15.07;;;8.47;;
21581;SDS011;10952;50.836;4.348;2023-03-02T07:17:46;16.07;;;8.40;;
21581;SDS011;10952;50.836;4.348;2023-03-02T07:20:14;18.80;;;9.30;;
21581;SDS011;10952;50.836;4.348;2023-03-02T07:22:41;16.60;;;7.93;;
21581;SDS011;10952;50.836;4.348;2023-03-02T07:25:09;22.47;;;9.27;;
21581;SDS011;10952;50.836;4.348;2023-03-02T07:27:35;16.73;;;8.57;;
21581;SDS011;10952;50.836;4.348;2023-03-02T07:30:05;21.17;;;8.60;;
21581;SDS011;10952;50.836;4.348;2023-03-02T07:32:33;28.50;;;10.17;;
21581;SDS011;10952;50.836;4.348;2023-03-02T07:34:59;17.73;;;7.83;;
21581;SDS011;10952;50.836;4.348;2023-03-02T07:39:53;20.17;;;9.03;;
21581;SDS011;10952;50.836;4.348;2023-03-02T07:42:21;29.83;;;9.30;;
21581;SDS011;10952;50.836;4.348;2023-03-02T07:44:47;25.33;;;10.00;;
21581;SDS011;10952;50.836;4.348;2023-03-02T07:47:12;28.20;;;9.50;;
21581;SDS011;10952;50.836;4.348;2023-03-02T07:49:39;24.63;;;8.73;;
21581;SDS011;10952;50.836;4.348;2023-03-02T07:52:08;25.77;;;9.97;;
21581;SDS011;10952;50.836;4.348;2023-03-02T07:54:35;18.77;;;9.20;;
21581;SDS011;10952;50.836;4.348;2023-03-02T07:57:01;19.63;;;9.00;;
21581;SDS011;10952;50.836;4.348;2023-03-02T08:01:57;15.90;;;8.33;;
21581;SDS011;10952;50.836;4.348;2023-03-02T08:04:22;17.73;;;9.83;;
21581;SDS011;10952;50.836;4.348;2023-03-02T08:06:51;15.37;;;9.43;;
21581;SDS011;10952;50.836;4.348;2023-03-02T08:09:17;20.00;;;10.13;;
21581;SDS011;10952;50.836;4.348;2023-03-02T08:11:42;17.87;;;8.33;;
21581;SDS011;10952;50.836;4.348;2023-03-02T08:14:12;23.23;;;10.23;;
21581;SDS011;10952;50.836;4.348;2023-03-02T08:16:38;17.03;;;9.63;;
21581;SDS011;10952;50.836;4.348;2023-03-02T08:19:06;13.87;;;8.60;;
21581;SDS011;10952;50.836;4.348;2023-03-02T08:21:31;18.93;;;9.30;;
21581;SDS011;10952;50.836;4.348;2023-03-02T08:23:57;16.43;;;9.10;;
21581;SDS011;10952;50.836;4.348;2023-03-02T08:26:24;20.20;;;10.10;;
21581;SDS011;10952;50.836;4.348;2023-03-02T08:28:49;18.33;;;10.03;;
21581;SDS011;10952;50.836;4.348;2023-03-02T08:31:15;21.43;;;9.70;;
21581;SDS011;10952;50.836;4.348;2023-03-02T08:33:41;20.47;;;9.27;;
21581;SDS011;10952;50.836;4.348;2023-03-02T08:36:09;19.40;;;9.10;;
21581;SDS011;10952;50.836;4.348;2023-03-02T08:38:40;19.27;;;10.23;;
21581;SDS011;10952;50.836;4.348;2023-03-02T08:41:07;19.27;;;9.80;;
21581;SDS011;10952;50.836;4.348;2023-03-02T08:43:36;20.63;;;9.93;;
21581;SDS011;10952;50.836;4.348;2023-03-02T08:46:04;23.10;;;9.87;;
21581;SDS011;10952;50.836;4.348;2023-03-02T08:48:30;17.87;;;8.80;;
21581;SDS011;10952;50.836;4.348;2023-03-02T08:50:57;37.20;;;16.70;;
21581;SDS011;10952;50.836;4.348;2023-03-02T08:53:29;21.23;;;10.50;;
21581;SDS011;10952;50.836;4.348;2023-03-02T08:55:56;23.37;;;9.97;;
21581;SDS011;10952;50.836;4.348;2023-03-02T08:58:22;20.60;;;9.73;;
21581;SDS011;10952;50.836;4.348;2023-03-02T09:00:48;21.83;;;10.30;;
21581;SDS011;10952;50.836;4.348;2023-03-02T09:03:15;18.13;;;9.70;;
21581;SDS011;10952;50.836;4.348;2023-03-02T09:05:41;20.43;;;10.40;;
21581;SDS011;10952;50.836;4.348;2023-03-02T09:08:07;19.93;;;10.90;;
21581;SDS011;10952;50.836;4.348;2023-03-02T09:10:33;19.60;;;10.20;;
21581;SDS011;10952;50.836;4.348;2023-03-02T09:12:58;28.23;;;11.13;;
21581;SDS011;10952;50.836;4.348;2023-03-02T09:15:24;19.53;;;10.23;;
21581;SDS011;10952;50.836;4.348;2023-03-02T09:17:50;15.33;;;8.67;;
21581;SDS011;10952;50.836;4.348;2023-03-02T09:20:16;19.37;;;10.10;;
21581;SDS011;10952;50.836;4.348;2023-03-02T09:22:41;23.30;;;10.07;;
21581;SDS011;10952;50.836;4.348;2023-03-02T09:25:12;20.13;;;10.07;;
21581;SDS011;10952;50.836;4.348;2023-03-02T09:27:39;19.00;;;9.47;;
21581;SDS011;10952;50.836;4.348;2023-03-02T09:30:05;23.13;;;10.60;;
21581;SDS011;10952;50.836;4.348;2023-03-02T09:32:32;20.93;;;10.97;;
21581;SDS011;10952;50.836;4.348;2023-03-02T09:34:58;23.10;;;10.47;;
21581;SDS011;10952;50.836;4.348;2023-03-02T09:37:23;20.43;;;10.30;;
21581;SDS011;10952;50.836;4.348;2023-03-02T09:39:49;31.07;;;10.73;;
21581;SDS011;10952;50.836;4.348;2023-03-02T09:45:24;19.07;;;9.60;;
21581;SDS011;10952;50.836;4.348;2023-03-02T09:48:18;23.27;;;10.17;;
21581;SDS011;10952;50.836;4.348;2023-03-02T09:51:10;20.47;;;10.30;;
21581;SDS011;10952;50.836;4.348;2023-03-02T09:56:16;24.97;;;11.33;;
21581;SDS011;10952;50.836;4.348;2023-03-02T09:58:47;21.80;;;11.00;;
21581;SDS011;10952;50.836;4.348;2023-03-02T10:01:27;25.63;;;11.07;;
21581;SDS011;10952;50.836;4.348;2023-03-02T10:04:20;21.47;;;11.47;;
21581;SDS011;10952;50.836;4.348;2023-03-02T10:07:00;28.17;;;13.37;;
21581;SDS011;10952;50.836;4.348;2023-03-02T10:09:35;24.50;;;11.43;;
21581;SDS011;10952;50.836;4.348;2023-03-02T10:12:05;23.60;;;10.20;;
21581;SDS011;10952;50.836;4.348;2023-03-02T10:14:58;21.40;;;11.63;;
21581;SDS011;10952;50.836;4.348;2023-03-02T10:18:03;22.57;;;11.80;;
21581;SDS011;10952;50.836;4.348;2023-03-02T10:25:55;29.70;;;13.07;;
21581;SDS011;10952;50.836;4.348;2023-03-02T10:28:33;25.93;;;11.97;;
21581;SDS011;10952;50.836;4.348;2023-03-02T10:31:09;25.40;;;12.67;;
21581;SDS011;10952;50.836;4.348;2023-03-02T10:33:46;35.67;;;12.33;;
21581;SDS011;10952;50.836;4.348;2023-03-02T10:36:27;34.40;;;14.27;;
21581;SDS011;10952;50.836;4.348;2023-03-02T10:38:55;25.93;;;13.33;;
21581;SDS011;10952;50.836;4.348;2023-03-02T10:41:27;28.37;;;13.60;;
21581;SDS011;10952;50.836;4.348;2023-03-02T10:44:20;28.87;;;13.23;;
21581;SDS011;10952;50.836;4.348;2023-03-02T10:46:46;31.40;;;14.63;;
21581;SDS011;10952;50.836;4.348;2023-03-02T10:49:25;30.27;;;14.00;;
21581;SDS011;10952;50.836;4.348;2023-03-02T10:54:40;23.03;;;12.23;;
21581;SDS011;10952;50.836;4.348;2023-03-02T10:59:57;21.30;;;13.27;;
21581;SDS011;10952;50.836;4.348;2023-03-02T11:02:26;28.97;;;14.77;;
21581;SDS011;10952;50.836;4.348;2023-03-02T11:04:54;34.70;;;14.50;;
21581;SDS011;10952;50.836;4.348;2023-03-02T11:07:36;24.57;;;12.03;;
21581;SDS011;10952;50.836;4.348;2023-03-02T11:12:33;26.67;;;13.00;;
21581;SDS011;10952;50.836;4.348;2023-03-02T11:15:22;33.80;;;15.33;;
21581;SDS011;10952;50.836;4.348;2023-03-02T11:17:53;25.53;;;14.30;;
21581;SDS011;10952;50.836;4.348;2023-03-02T11:20:30;23.83;;;14.00;;
21581;SDS011;10952;50.836;4.348;2023-03-02T11:23:09;23.67;;;13.93;;
21581;SDS011;10952;50.836;4.348;2023-03-02T11:25:39;26.23;;;14.70;;
21581;SDS011;10952;50.836;4.348;2023-03-02T11:28:21;29.60;;;15.20;;
21581;SDS011;10952;50.836;4.348;2023-03-02T11:31:11;25.87;;;14.30;;
21581;SDS011;10952;50.836;4.348;2023-03-02T11:33:42;28.40;;;16.10;;
21581;SDS011;10952;50.836;4.348;2023-03-02T11:36:42;26.33;;;14.63;;
21581;SDS011;10952;50.836;4.348;2023-03-02T11:39:15;27.23;;;15.17;;
21581;SDS011;10952;50.836;4.348;2023-03-02T11:41:46;28.67;;;15.90;;
21581;SDS011;10952;50.836;4.348;2023-03-02T11:44:18;28.83;;;16.33;;
21581;SDS011;10952;50.836;4.348;2023-03-02T11:46:46;30.50;;;15.70;;
21581;SDS011;10952;50.836;4.348;2023-03-02T11:49:18;29.33;;;17.50;;
21581;SDS011;10952;50.836;4.348;2023-03-02T11:52:08;28.60;;;16.27;;
21581;SDS011;10952;50.836;4.348;2023-03-02T11:57:28;30.73;;;15.20;;
21581;SDS011;10952;50.836;4.348;2023-03-02T11:59:58;29.83;;;17.37;;
21581;SDS011;10952;50.836;4.348;2023-03-02T12:02:24;31.47;;;16.67;;
21581;SDS011;10952;50.836;4.348;2023-03-02T12:05:19;39.87;;;17.70;;
21581;SDS011;10952;50.836;4.348;2023-03-02T12:11:06;35.43;;;17.30;;
21581;SDS011;10952;50.836;4.348;2023-03-02T12:13:42;31.70;;;15.47;;
21581;SDS011;10952;50.836;4.348;2023-03-02T12:16:18;30.50;;;15.90;;
21581;SDS011;10952;50.836;4.348;2023-03-02T12:18:49;30.27;;;15.70;;
21581;SDS011;10952;50.836;4.348;2023-03-02T12:21:17;30.97;;;16.40;;
21581;SDS011;10952;50.836;4.348;2023-03-02T12:31:45;33.43;;;15.73;;
21581;SDS011;10952;50.836;4.348;2023-03-02T12:34:20;31.07;;;16.13;;
21581;SDS011;10952;50.836;4.348;2023-03-02T12:37:02;27.90;;;15.43;;
21581;SDS011;10952;50.836;4.348;2023-03-02T12:47:23;26.13;;;15.60;;
21581;SDS011;10952;50.836;4.348;2023-03-02T12:49:54;27.67;;;15.83;;
21581;SDS011;10952;50.836;4.348;2023-03-02T12:52:32;28.50;;;15.33;;
21581;SDS011;10952;50.836;4.348;2023-03-02T12:55:01;30.93;;;15.13;;
21581;SDS011;10952;50.836;4.348;2023-03-02T12:57:30;27.43;;;17.20;;
21581;SDS011;10952;50.836;4.348;2023-03-02T12:59:57;32.23;;;16.70;;
21581;SDS011;10952;50.836;4.348;2023-03-02T13:02:25;36.47;;;17.80;;
21581;SDS011;10952;50.836;4.348;2023-03-02T13:04:56;32.33;;;15.43;;
21581;SDS011;10952;50.836;4.348;2023-03-02T13:07:25;24.30;;;14.93;;
21581;SDS011;10952;50.836;4.348;2023-03-02T13:09:54;29.37;;;15.77;;
21581;SDS011;10952;50.836;4.348;2023-03-02T13:12:21;35.20;;;16.30;;
21581;SDS011;10952;50.836;4.348;2023-03-02T13:14:51;37.23;;;17.27;;
21581;SDS011;10952;50.836;4.348;2023-03-02T13:17:24;26.60;;;15.07;;
21581;SDS011;10952;50.836;4.348;2023-03-02T13:19:54;33.33;;;16.43;;
21581;SDS011;10952;50.836;4.348;2023-03-02T13:22:22;33.10;;;15.57;;
21581;SDS011;10952;50.836;4.348;2023-03-02T13:24:54;41.80;;;20.07;;
21581;SDS011;10952;50.836;4.348;2023-03-02T13:27:22;26.70;;;15.30;;
21581;SDS011;10952;50.836;4.348;2023-03-02T13:29:48;28.73;;;16.83;;
21581;SDS011;10952;50.836;4.348;2023-03-02T13:32:21;29.83;;;16.40;;
21581;SDS011;10952;50.836;4.348;2023-03-02T13:34:50;34.53;;;15.83;;
21581;SDS011;10952;50.836;4.348;2023-03-02T13:40:05;31.67;;;15.27;;
21581;SDS011;10952;50.836;4.348;2023-03-02T13:42:51;33.70;;;16.53;;
21581;SDS011;10952;50.836;4.348;2023-03-02T13:47:53;31.60;;;16.10;;
21581;SDS011;10952;50.836;4.348;2023-03-02T13:50:21;28.93;;;15.40;;
21581;SDS011;10952;50.836;4.348;2023-03-02T13:52:48;28.10;;;15.80;;
21581;SDS011;10952;50.836;4.348;2023-03-02T13:55:15;33.00;;;15.33;;
21581;SDS011;10952;50.836;4.348;2023-03-02T13:57:42;27.57;;;15.20;;
21581;SDS011;10952;50.836;4.348;2023-03-02T14:00:15;31.80;;;14.70;;
21581;SDS011;10952;50.836;4.348;2023-03-02T14:03:27;26.10;;;13.33;;
21581;SDS011;10952;50.836;4.348;2023-03-02T14:05:55;41.50;;;19.80;;
21581;SDS011;10952;50.836;4.348;2023-03-02T14:08:22;29.27;;;15.30;;
21581;SDS011;10952;50.836;4.348;2023-03-02T14:10:49;27.17;;;14.17;;
21581;SDS011;10952;50.836;4.348;2023-03-02T14:13:19;34.33;;;14.87;;
21581;SDS011;10952;50.836;4.348;2023-03-02T14:15:48;32.33;;;14.63;;
21581;SDS011;10952;50.836;4.348;2023-03-02T14:18:23;31.77;;;15.70;;
21581;SDS011;10952;50.836;4.348;2023-03-02T14:20:50;29.83;;;16.00;;
21581;SDS011;10952;50.836;4.348;2023-03-02T14:23:15;29.20;;;14.60;;
21581;SDS011;10952;50.836;4.348;2023-03-02T14:25:41;24.40;;;14.37;;
21581;SDS011;10952;50.836;4.348;2023-03-02T14:28:09;26.87;;;14.67;;
21581;SDS011;10952;50.836;4.348;2023-03-02T14:30:37;30.50;;;14.57;;
21581;SDS011;10952;50.836;4.348;2023-03-02T14:33:07;32.57;;;15.93;;
21581;SDS011;10952;50.836;4.348;2023-03-02T14:35:39;31.30;;;14.80;;
21581;SDS011;10952;50.836;4.348;2023-03-02T14:38:06;29.77;;;13.27;;
21581;SDS011;10952;50.836;4.348;2023-03-02T14:40:33;33.77;;;15.27;;
21581;SDS011;10952;50.836;4.348;2023-03-02T14:42:59;28.37;;;13.73;;
21581;SDS011;10952;50.836;4.348;2023-03-02T14:45:24;25.07;;;13.50;;
21581;SDS011;10952;50.836;4.348;2023-03-02T14:47:50;29.40;;;14.30;;
21581;SDS011;10952;50.836;4.348;2023-03-02T14:50:16;25.53;;;12.90;;
21581;SDS011;10952;50.836;4.348;2023-03-02T14:52:47;23.73;;;12.40;;
21581;SDS011;10952;50.836;4.348;2023-03-02T14:55:31;25.17;;;13.23;;
21581;SDS011;10952;50.836;4.348;2023-03-02T14:57:58;27.60;;;13.30;;
21581;SDS011;10952;50.836;4.348;2023-03-02T15:00:26;24.97;;;13.07;;
21581;SDS011;10952;50.836;4.348;2023-03-02T15:02:52;24.50;;;13.67;;
21581;SDS011;10952;50.836;4.348;2023-03-02T15:05:18;22.73;;;12.67;;
21581;SDS011;10952;50.836;4.348;2023-03-02T15:07:44;28.23;;;13.13;;
21581;SDS011;10952;50.836;4.348;2023-03-02T15:10:14;28.13;;;13.40;;
21581;SDS011;10952;50.836;4.348;2023-03-02T15:12:44;24.07;;;13.43;;
21581;SDS011;10952;50.836;4.348;2023-03-02T15:15:11;41.07;;;14.73;;
21581;SDS011;10952;50.836;4.348;2023-03-02T15:17:37;26.60;;;13.63;;
21581;SDS011;10952;50.836;4.348;2023-03-02T15:20:03;24.87;;;13.57;;
21581;SDS011;10952;50.836;4.348;2023-03-02T15:22:30;24.10;;;13.30;;
21581;SDS011;10952;50.836;4.348;2023-03-02T15:24:56;27.73;;;13.83;;
21581;SDS011;10952;50.836;4.348;2023-03-02T15:27:22;23.00;;;13.13;;
21581;SDS011;10952;50.836;4.348;2023-03-02T15:29:48;22.40;;;12.40;;
21581;SDS011;10952;50.836;4.348;2023-03-02T15:32:13;24.90;;;14.37;;
21581;SDS011;10952;50.836;4.348;2023-03-02T15:34:39;27.07;;;13.03;;
21581;SDS011;10952;50.836;4.348;2023-03-02T15:37:05;33.40;;;12.87;;
21581;SDS011;10952;50.836;4.348;2023-03-02T15:39:31;31.57;;;12.67;;
21581;SDS011;10952;50.836;4.348;2023-03-02T15:41:58;28.90;;;13.07;;
21581;SDS011;10952;50.836;4.348;2023-03-02T15:44:23;25.00;;;12.73;;
21581;SDS011;10952;50.836;4.348;2023-03-02T15:46:51;22.07;;;12.47;;
21581;SDS011;10952;50.836;4.348;2023-03-02T15:49:18;51.23;;;27.50;;
21581;SDS011;10952;50.836;4.348;2023-03-02T15:51:47;27.27;;;13.37;;
21581;SDS011;10952;50.836;4.348;2023-03-02T15:54:14;24.63;;;11.90;;
21581;SDS011;10952;50.836;4.348;2023-03-02T15:56:39;21.23;;;12.37;;
21581;SDS011;10952;50.836;4.348;2023-03-02T15:59:05;27.33;;;13.70;;
21581;SDS011;10952;50.836;4.348;2023-03-02T16:01:30;22.43;;;12.50;;
21581;SDS011;10952;50.836;4.348;2023-03-02T16:03:58;25.17;;;12.97;;
21581;SDS011;10952;50.836;4.348;2023-03-02T16:06:24;29.43;;;12.93;;
21581;SDS011;10952;50.836;4.348;2023-03-02T16:08:51;24.60;;;13.57;;
21581;SDS011;10952;50.836;4.348;2023-03-02T16:11:17;21.83;;;12.50;;
21581;SDS011;10952;50.836;4.348;2023-03-02T16:13:47;28.20;;;13.03;;
21581;SDS011;10952;50.836;4.348;2023-03-02T16:16:13;24.10;;;11.97;;
21581;SDS011;10952;50.836;4.348;2023-03-02T16:18:40;24.50;;;12.33;;
21581;SDS011;10952;50.836;4.348;2023-03-02T16:21:09;20.47;;;12.30;;
21581;SDS011;10952;50.836;4.348;2023-03-02T16:23:36;22.87;;;12.30;;
21581;SDS011;10952;50.836;4.348;2023-03-02T16:26:06;19.80;;;11.50;;
21581;SDS011;10952;50.836;4.348;2023-03-02T16:28:33;26.00;;;12.50;;
21581;SDS011;10952;50.836;4.348;2023-03-02T16:31:05;24.43;;;12.30;;
21581;SDS011;10952;50.836;4.348;2023-03-02T16:33:32;29.67;;;15.13;;
21581;SDS011;10952;50.836;4.348;2023-03-02T16:35:58;21.77;;;11.90;;
21581;SDS011;10952;50.836;4.348;2023-03-02T16:38:23;32.00;;;13.30;;
21581;SDS011;10952;50.836;4.348;2023-03-02T16:40:49;24.53;;;13.20;;